createdAt,value
2017-08-19T00:00:46.943Z,17.62
2017-08-19T00:03:15.365Z,17.61
2017-08-19T00:05:43.823Z,17.55
2017-08-19T00:08:12.300Z,17.55
2017-08-19T00:10:40.751Z,17.49
2017-08-19T00:13:09.967Z,17.49
2017-08-19T00:15:38.407Z,17.43
2017-08-19T00:18:06.826Z,17.40
2017-08-19T00:20:35.307Z,17.50
2017-08-19T00:23:03.805Z,17.41
2017-08-19T00:25:32.287Z,17.41
2017-08-19T00:28:00.734Z,17.43
2017-08-19T00:30:29.956Z,17.39
2017-08-19T00:32:58.449Z,17.41
2017-08-19T00:35:26.919Z,17.35
2017-08-19T00:37:55.414Z,17.29
2017-08-19T00:40:23.839Z,17.23
2017-08-19T00:42:52.372Z,17.27
2017-08-19T00:45:20.791Z,17.23
2017-08-19T00:47:49.332Z,17.25
2017-08-19T00:50:17.811Z,17.23
2017-08-19T00:52:46.287Z,17.25
2017-08-19T00:55:14.768Z,17.25
2017-08-19T00:57:43.255Z,17.20
2017-08-19T01:00:11.731Z,17.19
2017-08-19T01:02:40.238Z,17.17
2017-08-19T01:05:08.699Z,17.15
2017-08-19T01:07:37.143Z,17.06
2017-08-19T01:10:06.331Z,17.05
2017-08-19T01:12:34.873Z,17.02
2017-08-19T01:15:03.363Z,17.01
2017-08-19T01:17:31.839Z,17.00
2017-08-19T01:20:00.318Z,16.99
2017-08-19T01:22:28.797Z,16.92
2017-08-19T01:28:02.272Z,16.92
2017-08-19T01:30:30.712Z,16.89
2017-08-19T01:32:59.176Z,16.90
2017-08-19T01:35:27.673Z,16.87
2017-08-19T01:37:56.149Z,16.85
2017-08-19T01:40:24.597Z,16.85
2017-08-19T01:42:53.937Z,16.85
2017-08-19T01:45:22.409Z,16.84
2017-08-19T01:47:50.878Z,16.83
2017-08-19T01:50:19.372Z,16.78
2017-08-19T01:52:47.837Z,16.86
2017-08-19T01:55:16.263Z,16.82
2017-08-19T01:57:44.722Z,16.87
2017-08-19T02:00:13.189Z,16.90
2017-08-19T02:02:41.680Z,16.90
2017-08-19T02:05:10.161Z,16.90
2017-08-19T02:07:38.597Z,16.87
2017-08-19T02:10:07.124Z,16.90
2017-08-19T02:12:35.594Z,16.86
2017-08-19T02:15:04.058Z,16.88
2017-08-19T02:17:33.298Z,16.91
2017-08-19T02:20:01.850Z,16.91
2017-08-19T02:22:30.352Z,16.94
2017-08-19T02:24:58.821Z,17.03
2017-08-19T02:27:27.316Z,16.91
2017-08-19T02:29:55.780Z,16.89
2017-08-19T02:32:24.280Z,16.89
2017-08-19T02:34:52.740Z,16.85
2017-08-19T02:37:21.174Z,16.77
2017-08-19T02:39:49.720Z,16.72
2017-08-19T02:42:18.157Z,16.74
2017-08-19T02:44:46.699Z,16.74
2017-08-19T02:47:15.182Z,16.75
2017-08-19T02:49:43.747Z,16.77
2017-08-19T02:52:12.250Z,16.78
2017-08-19T02:54:41.356Z,16.76
2017-08-19T02:57:09.783Z,16.75
2017-08-19T02:59:39.026Z,16.79
2017-08-19T03:02:07.504Z,16.72
2017-08-19T03:04:35.989Z,16.68
2017-08-19T03:07:04.444Z,16.66
2017-08-19T03:09:32.940Z,16.59
2017-08-19T03:12:01.434Z,16.56
2017-08-19T03:14:29.918Z,16.53
2017-08-19T03:16:58.488Z,16.55
2017-08-19T03:19:26.928Z,16.50
2017-08-19T03:21:56.151Z,16.51
2017-08-19T03:24:24.606Z,16.51
2017-08-19T03:26:53.832Z,16.52
2017-08-19T03:29:22.275Z,16.45
2017-08-19T03:31:50.732Z,16.40
2017-08-19T03:34:19.203Z,16.42
2017-08-19T03:36:47.684Z,16.43
2017-08-19T03:39:16.167Z,16.41
2017-08-19T03:41:44.630Z,16.42
2017-08-19T03:44:13.055Z,16.40
2017-08-19T03:46:41.606Z,16.40
2017-08-19T03:49:10.090Z,16.39
2017-08-19T03:51:38.560Z,16.40
2017-08-19T03:54:07.053Z,16.39
2017-08-19T03:56:35.521Z,16.39
2017-08-19T03:59:03.955Z,16.35
2017-08-19T04:01:32.402Z,16.32
2017-08-19T04:04:00.876Z,16.31
2017-08-19T04:06:29.330Z,16.29
2017-08-19T04:08:57.787Z,16.27
2017-08-19T04:11:26.316Z,16.24
2017-08-19T04:13:54.815Z,16.27
2017-08-19T04:16:23.285Z,16.27
2017-08-19T04:18:51.775Z,16.28
2017-08-19T04:21:20.239Z,16.27
2017-08-19T04:23:48.738Z,16.26
2017-08-19T04:26:17.220Z,16.26
2017-08-19T04:28:45.692Z,16.32
2017-08-19T04:31:14.168Z,16.31
2017-08-19T04:33:42.620Z,16.35
2017-08-19T04:36:11.820Z,16.36
2017-08-19T04:38:41.156Z,16.39
2017-08-19T04:41:09.637Z,16.42
2017-08-19T04:43:38.105Z,16.41
2017-08-19T04:46:06.611Z,16.42
2017-08-19T04:48:35.068Z,16.41
2017-08-19T04:51:03.509Z,16.45
2017-08-19T04:53:32.051Z,16.47
2017-08-19T04:56:00.522Z,16.43
2017-08-19T04:58:28.956Z,16.43
2017-08-19T05:00:57.483Z,16.44
2017-08-19T05:03:25.976Z,16.47
2017-08-19T05:05:54.444Z,16.45
2017-08-19T05:08:22.947Z,16.47
2017-08-19T05:10:51.404Z,16.47
2017-08-19T05:13:19.900Z,16.48
2017-08-19T05:15:48.386Z,16.56
2017-08-19T05:18:16.871Z,16.62
2017-08-19T05:20:45.342Z,16.63
2017-08-19T05:23:13.838Z,16.62
2017-08-19T05:25:42.637Z,16.63
2017-08-19T05:28:11.082Z,16.59
2017-08-19T05:30:39.593Z,16.64
2017-08-19T05:33:08.022Z,16.63
2017-08-19T05:35:36.539Z,16.67
2017-08-19T05:38:04.968Z,16.72
2017-08-19T05:40:33.438Z,16.81
2017-08-19T05:43:01.863Z,16.82
2017-08-19T05:45:30.322Z,16.76
2017-08-19T05:47:58.755Z,16.75
2017-08-19T05:50:27.187Z,16.80
2017-08-19T05:52:56.516Z,16.86
2017-08-19T05:55:25.024Z,16.90
2017-08-19T05:57:53.491Z,16.86
2017-08-19T06:00:21.982Z,16.88
2017-08-19T06:02:50.461Z,16.97
2017-08-19T06:05:18.892Z,16.84
2017-08-19T06:07:47.850Z,16.82
2017-08-19T06:10:16.280Z,16.85
2017-08-19T06:12:45.626Z,16.84
2017-08-19T06:15:14.075Z,16.88
2017-08-19T06:17:42.542Z,16.97
2017-08-19T06:20:12.006Z,17.07
2017-08-19T06:22:40.554Z,17.02
2017-08-19T06:25:08.975Z,17.10
2017-08-19T06:27:37.420Z,17.07
2017-08-19T06:30:05.860Z,17.10
2017-08-19T06:32:34.324Z,17.04
2017-08-19T06:35:02.778Z,17.03
2017-08-19T06:37:31.259Z,17.01
2017-08-19T06:39:59.746Z,16.99
2017-08-19T06:42:28.221Z,16.90
2017-08-19T06:44:57.336Z,16.95
2017-08-19T06:47:25.902Z,16.98
2017-08-19T06:49:54.372Z,16.96
2017-08-19T06:52:22.842Z,16.85
2017-08-19T06:54:51.352Z,16.97
2017-08-19T06:57:19.838Z,16.94
2017-08-19T06:59:48.317Z,16.94
2017-08-19T07:02:16.784Z,16.97
2017-08-19T07:04:45.240Z,17.00
2017-08-19T07:07:13.766Z,16.99
2017-08-19T07:09:42.230Z,17.01
2017-08-19T07:12:10.657Z,17.07
2017-08-19T07:14:39.115Z,17.04
2017-08-19T07:17:07.572Z,17.00
2017-08-19T07:19:36.038Z,16.97
2017-08-19T07:22:04.537Z,16.95
2017-08-19T07:24:33.034Z,17.12
2017-08-19T07:27:01.464Z,17.11
2017-08-19T07:29:30.710Z,17.09
2017-08-19T07:31:59.150Z,17.13
2017-08-19T07:34:28.383Z,17.14
2017-08-19T07:36:56.807Z,17.35
2017-08-19T07:39:25.252Z,17.31
2017-08-19T07:41:53.739Z,17.41
2017-08-19T07:44:22.203Z,17.45
2017-08-19T07:46:50.623Z,17.48
2017-08-19T07:49:19.082Z,17.43
2017-08-19T07:51:47.668Z,17.52
2017-08-19T07:54:16.109Z,17.57
2017-08-19T07:56:45.428Z,17.63
2017-08-19T07:59:13.930Z,17.69
2017-08-19T08:01:42.407Z,17.73
2017-08-19T08:04:10.870Z,17.86
2017-08-19T08:06:39.364Z,17.76
2017-08-19T08:09:07.853Z,17.84
2017-08-19T08:11:36.329Z,17.75
2017-08-19T08:14:04.799Z,17.85
2017-08-19T08:16:33.244Z,17.84
2017-08-19T08:19:01.783Z,17.98
2017-08-19T08:21:30.263Z,18.14
2017-08-19T08:23:58.766Z,18.17
2017-08-19T08:26:27.234Z,18.16
2017-08-19T08:28:56.118Z,18.11
2017-08-19T08:31:24.586Z,18.25
2017-08-19T08:33:53.082Z,18.29
2017-08-19T08:36:21.556Z,18.23
2017-08-19T08:38:50.051Z,18.22
2017-08-19T08:41:18.521Z,18.31
2017-08-19T08:43:46.970Z,18.47
2017-08-19T08:46:16.173Z,18.71
2017-08-19T08:48:45.500Z,18.73
2017-08-19T08:51:13.928Z,18.90
2017-08-19T08:53:42.468Z,18.97
2017-08-19T08:56:10.948Z,19.19
2017-08-19T08:58:39.396Z,19.01
2017-08-19T09:01:08.628Z,19.00
2017-08-19T09:03:37.111Z,18.99
2017-08-19T09:06:05.544Z,19.06
2017-08-19T09:08:34.001Z,19.20
2017-08-19T09:11:02.456Z,19.10
2017-08-19T09:13:30.932Z,18.84
2017-08-19T09:15:59.417Z,19.15
2017-08-19T09:18:27.895Z,19.20
2017-08-19T09:20:56.325Z,19.42
2017-08-19T09:23:24.871Z,19.63
2017-08-19T09:25:53.354Z,19.95
2017-08-19T09:28:21.825Z,19.79
2017-08-19T09:30:50.261Z,19.68
2017-08-19T09:33:18.798Z,19.68
2017-08-19T09:35:47.273Z,19.64
2017-08-19T09:38:15.756Z,19.75
2017-08-19T09:40:44.183Z,19.56
2017-08-19T09:43:12.645Z,19.36
2017-08-19T09:45:41.096Z,19.38
2017-08-19T09:48:09.544Z,19.30
2017-08-19T09:50:38.781Z,19.63
2017-08-19T09:53:07.252Z,19.60
2017-08-19T09:55:35.745Z,19.49
2017-08-19T09:58:04.231Z,19.59
2017-08-19T10:00:32.704Z,19.67
2017-08-19T10:03:01.127Z,19.89
2017-08-19T10:05:29.681Z,20.18
2017-08-19T10:07:58.161Z,20.11
2017-08-19T10:13:32.696Z,20.37
2017-08-19T10:16:01.191Z,20.57
2017-08-19T10:18:29.660Z,20.36
2017-08-19T10:20:58.089Z,20.70
2017-08-19T10:23:26.536Z,20.80
2017-08-19T10:25:55.004Z,20.60
2017-08-19T10:28:23.495Z,20.84
2017-08-19T10:30:51.957Z,20.84
2017-08-19T10:33:20.384Z,21.10
2017-08-19T10:35:48.928Z,21.06
2017-08-19T10:38:17.366Z,21.02
2017-08-19T10:40:45.896Z,21.34
2017-08-19T10:43:14.319Z,21.16
2017-08-19T10:45:42.782Z,21.32
2017-08-19T10:48:11.246Z,21.28
2017-08-19T10:50:39.726Z,21.55
2017-08-19T10:53:08.200Z,21.53
2017-08-19T10:55:36.640Z,21.36
2017-08-19T10:58:05.875Z,21.31
2017-08-19T11:00:34.361Z,20.80
2017-08-19T11:03:02.792Z,20.57
2017-08-19T11:05:31.246Z,20.56
2017-08-19T11:07:59.713Z,20.52
2017-08-19T11:10:28.169Z,20.74
2017-08-19T11:12:56.667Z,21.11
2017-08-19T11:15:25.166Z,20.97
2017-08-19T11:17:53.620Z,20.98
2017-08-19T11:20:22.121Z,20.67
2017-08-19T11:22:50.548Z,20.63
2017-08-19T11:25:19.005Z,20.61
2017-08-19T11:27:47.450Z,20.48
2017-08-19T11:30:15.950Z,20.74
2017-08-19T11:32:44.419Z,20.78
2017-08-19T11:35:12.853Z,20.70
2017-08-19T11:37:41.299Z,20.57
2017-08-19T11:40:09.728Z,20.59
2017-08-19T11:42:38.963Z,20.64
2017-08-19T11:45:07.401Z,20.71
2017-08-19T11:47:35.918Z,20.51
2017-08-19T11:50:04.425Z,20.39
2017-08-19T11:52:32.903Z,20.30
2017-08-19T11:55:01.375Z,20.38
2017-08-19T11:57:29.854Z,20.39
2017-08-19T11:59:58.275Z,20.66
2017-08-19T12:02:26.726Z,21.13
2017-08-19T12:04:55.199Z,20.94
2017-08-19T12:07:23.683Z,20.82
2017-08-19T12:09:52.118Z,21.34
2017-08-19T12:12:20.659Z,21.75
2017-08-19T12:14:49.123Z,21.60
2017-08-19T12:17:17.613Z,21.63
2017-08-19T12:19:46.070Z,21.61
2017-08-19T12:22:14.576Z,21.09
2017-08-19T12:24:43.065Z,20.95
2017-08-19T12:27:11.546Z,20.55
2017-08-19T12:29:40.010Z,20.90
2017-08-19T12:32:08.430Z,21.18
2017-08-19T12:34:36.991Z,21.25
2017-08-19T12:37:05.415Z,21.47
2017-08-19T12:39:33.972Z,21.77
2017-08-19T12:42:02.431Z,21.31
2017-08-19T12:44:30.893Z,21.68
2017-08-19T12:46:59.396Z,21.77
2017-08-19T12:49:27.871Z,21.58
2017-08-19T12:51:56.360Z,21.75
2017-08-19T12:54:24.812Z,21.47
2017-08-19T12:56:54.032Z,21.88
2017-08-19T12:59:22.519Z,21.89
2017-08-19T13:01:50.949Z,21.91
2017-08-19T13:04:19.480Z,21.85
2017-08-19T13:06:47.959Z,22.06
2017-08-19T13:09:16.449Z,22.22
2017-08-19T13:11:44.928Z,22.46
2017-08-19T13:14:13.376Z,22.69
2017-08-19T13:16:42.625Z,22.66
2017-08-19T13:19:11.089Z,22.03
2017-08-19T13:21:39.529Z,21.76
2017-08-19T13:24:08.011Z,22.12
2017-08-19T13:26:36.546Z,21.88
2017-08-19T13:29:05.011Z,21.87
2017-08-19T13:31:33.460Z,21.62
2017-08-19T13:34:02.681Z,21.79
2017-08-19T13:36:31.291Z,22.24
2017-08-19T13:38:59.749Z,22.23
2017-08-19T13:41:28.212Z,22.47
2017-08-19T13:43:57.425Z,22.64
2017-08-19T13:46:25.939Z,22.69
2017-08-19T13:48:55.088Z,22.29
2017-08-19T13:51:24.418Z,21.83
2017-08-19T13:53:52.858Z,22.03
2017-08-19T13:56:21.308Z,22.09
2017-08-19T13:58:49.757Z,21.94
2017-08-19T14:01:18.221Z,21.83
2017-08-19T14:03:47.548Z,22.07
2017-08-19T14:06:16.026Z,22.07
2017-08-19T14:08:44.532Z,22.51
2017-08-19T14:11:12.991Z,22.72
2017-08-19T14:13:41.479Z,22.72
2017-08-19T14:16:09.979Z,22.56
2017-08-19T14:18:38.856Z,22.39
2017-08-19T14:21:07.346Z,22.32
2017-08-19T14:23:35.828Z,22.13
2017-08-19T14:26:04.294Z,22.33
2017-08-19T14:28:32.784Z,22.46
2017-08-19T14:31:01.233Z,22.52
2017-08-19T14:33:30.432Z,22.47
2017-08-19T14:35:59.759Z,22.31
2017-08-19T14:38:28.247Z,22.45
2017-08-19T14:40:56.738Z,22.34
2017-08-19T14:43:25.328Z,22.58
2017-08-19T14:45:53.765Z,22.27
2017-08-19T14:48:22.989Z,22.29
2017-08-19T14:50:51.483Z,22.44
2017-08-19T14:53:19.970Z,22.54
2017-08-19T14:55:48.452Z,22.38
2017-08-19T14:58:16.910Z,22.21
2017-08-19T15:00:45.391Z,22.03
2017-08-19T15:03:13.874Z,21.99
2017-08-19T15:05:42.304Z,22.08
2017-08-19T15:08:10.844Z,21.98
2017-08-19T15:10:39.327Z,21.82
2017-08-19T15:13:07.764Z,21.87
2017-08-19T15:15:36.305Z,21.96
2017-08-19T15:18:04.765Z,22.33
2017-08-19T15:20:33.256Z,22.39
2017-08-19T15:23:01.740Z,22.35
2017-08-19T15:25:30.164Z,22.48
2017-08-19T15:27:58.614Z,22.45
2017-08-19T15:30:27.053Z,22.19
2017-08-19T15:32:56.384Z,21.97
2017-08-19T15:35:24.826Z,22.04
2017-08-19T15:37:54.066Z,21.98
2017-08-19T15:40:22.516Z,21.88
2017-08-19T15:42:51.758Z,21.79
2017-08-19T15:45:20.222Z,21.67
2017-08-19T15:47:48.648Z,21.64
2017-08-19T15:50:17.187Z,21.67
2017-08-19T15:52:45.682Z,21.49
2017-08-19T15:55:14.158Z,21.30
2017-08-19T15:57:42.596Z,21.32
2017-08-19T16:00:11.826Z,21.24
2017-08-19T16:02:40.261Z,21.15
2017-08-19T16:05:08.786Z,21.14
2017-08-19T16:07:37.292Z,21.23
2017-08-19T16:10:05.772Z,21.32
2017-08-19T16:12:34.234Z,21.25
2017-08-19T16:15:02.678Z,21.40
2017-08-19T16:17:31.109Z,21.16
2017-08-19T16:19:59.592Z,21.04
2017-08-19T16:22:28.030Z,20.93
2017-08-19T16:24:57.286Z,20.77
2017-08-19T16:27:25.764Z,20.88
2017-08-19T16:29:54.246Z,21.12
2017-08-19T16:32:22.689Z,21.07
2017-08-19T16:34:52.012Z,21.15
2017-08-19T16:37:20.500Z,21.34
2017-08-19T16:39:48.971Z,21.07
2017-08-19T16:42:17.470Z,21.32
2017-08-19T16:44:45.900Z,21.60
2017-08-19T16:47:15.155Z,21.77
2017-08-19T16:49:43.590Z,21.22
2017-08-19T16:52:12.919Z,21.18
2017-08-19T16:54:41.408Z,21.47
2017-08-19T16:57:09.868Z,21.67
2017-08-19T16:59:38.380Z,21.88
2017-08-19T17:02:06.843Z,21.88
2017-08-19T17:04:35.272Z,22.17
2017-08-19T17:07:03.825Z,22.23
2017-08-19T17:09:32.261Z,22.04
2017-08-19T17:12:01.501Z,22.21
2017-08-19T17:14:29.986Z,21.89
2017-08-19T17:16:58.470Z,21.88
2017-08-19T17:19:26.944Z,21.90
2017-08-19T17:21:55.420Z,21.60
2017-08-19T17:24:23.903Z,21.39
2017-08-19T17:26:52.352Z,21.31
2017-08-19T17:29:21.557Z,20.99
2017-08-19T17:31:50.780Z,20.76
2017-08-19T17:34:19.272Z,20.65
2017-08-19T17:36:47.757Z,20.48
2017-08-19T17:39:16.223Z,20.34
2017-08-19T17:41:44.723Z,20.20
2017-08-19T17:44:13.208Z,20.11
2017-08-19T17:46:41.666Z,19.97
2017-08-19T17:49:10.174Z,19.86
2017-08-19T17:51:38.645Z,19.75
2017-08-19T17:54:07.124Z,19.70
2017-08-19T17:56:35.618Z,19.66
2017-08-19T17:59:04.071Z,19.51
2017-08-19T18:01:32.558Z,19.47
2017-08-19T18:04:01.065Z,19.43
2017-08-19T18:06:29.501Z,19.34
2017-08-19T18:08:58.793Z,19.28
2017-08-19T18:11:28.033Z,19.19
2017-08-19T18:13:56.494Z,19.18
2017-08-19T18:16:24.986Z,19.07
2017-08-19T18:18:53.445Z,19.02
2017-08-19T18:21:22.676Z,18.97
2017-08-19T18:23:51.119Z,18.92
2017-08-19T18:26:20.355Z,18.89
2017-08-19T18:28:48.813Z,18.81
2017-08-19T18:31:18.045Z,18.77
2017-08-19T18:33:46.517Z,18.70
2017-08-19T18:36:14.990Z,18.67
2017-08-19T18:38:43.496Z,18.67
2017-08-19T18:41:11.956Z,18.60
2017-08-19T18:43:40.379Z,18.60
2017-08-19T18:46:08.941Z,18.51
2017-08-19T18:48:37.444Z,18.48
2017-08-19T18:51:06.008Z,18.51
2017-08-19T18:53:34.490Z,18.51
2017-08-19T18:56:02.962Z,18.50
2017-08-19T18:58:31.440Z,18.53
2017-08-19T19:00:59.959Z,18.47
2017-08-19T19:03:28.400Z,18.47
2017-08-19T19:05:56.885Z,18.38
2017-08-19T19:08:25.330Z,18.36
2017-08-19T19:10:54.659Z,18.28
2017-08-19T19:13:23.085Z,18.24
2017-08-19T19:15:51.633Z,18.26
2017-08-19T19:18:20.058Z,18.29
2017-08-19T19:20:48.579Z,18.26
2017-08-19T19:23:17.080Z,18.28
2017-08-19T19:25:45.561Z,18.26
2017-08-19T19:28:13.979Z,18.25
2017-08-19T19:30:42.532Z,18.25
2017-08-19T19:33:11.023Z,18.20
2017-08-19T19:35:40.017Z,18.22
2017-08-19T19:38:08.555Z,18.12
2017-08-19T19:40:37.780Z,18.09
2017-08-19T19:43:06.262Z,18.09
2017-08-19T19:45:34.701Z,18.08
2017-08-19T19:48:03.239Z,18.03
2017-08-19T19:50:31.724Z,17.94
2017-08-19T19:53:00.186Z,17.91
2017-08-19T19:55:28.670Z,17.85
2017-08-19T19:57:57.160Z,17.78
2017-08-19T20:00:25.630Z,17.71
2017-08-19T20:02:54.098Z,17.67
2017-08-19T20:05:22.595Z,17.57
2017-08-19T20:07:51.099Z,17.46
2017-08-19T20:10:19.574Z,17.38
2017-08-19T20:12:48.044Z,17.31
2017-08-19T20:15:16.528Z,17.25
2017-08-19T20:17:44.984Z,17.18
2017-08-19T20:20:14.181Z,17.10
2017-08-19T20:22:43.512Z,17.05
2017-08-19T20:25:11.949Z,16.99
2017-08-19T20:27:40.383Z,16.97
2017-08-19T20:30:08.836Z,16.92
2017-08-19T20:32:37.386Z,16.84
2017-08-19T20:35:05.915Z,16.80
2017-08-19T20:37:34.335Z,16.77
2017-08-19T20:40:02.794Z,16.75
2017-08-19T20:42:31.233Z,16.72
2017-08-19T20:45:00.564Z,16.66
2017-08-19T20:47:29.001Z,16.61
2017-08-19T20:49:57.532Z,16.60
2017-08-19T20:52:26.019Z,16.58
2017-08-19T20:54:54.480Z,16.56
2017-08-19T20:57:22.980Z,16.54
2017-08-19T20:59:51.467Z,16.48
2017-08-19T21:02:19.946Z,16.46
2017-08-19T21:04:48.421Z,16.47
2017-08-19T21:07:16.900Z,16.43
2017-08-19T21:09:45.390Z,16.38
2017-08-19T21:12:13.864Z,16.30
2017-08-19T21:14:42.349Z,16.33
2017-08-19T21:17:10.842Z,16.28
2017-08-19T21:19:39.413Z,16.24
2017-08-19T21:22:07.906Z,16.22
2017-08-19T21:24:36.391Z,16.19
2017-08-19T21:27:04.970Z,16.16
2017-08-19T21:29:33.439Z,16.18
2017-08-19T21:32:01.934Z,16.12
2017-08-19T21:34:30.403Z,16.12
2017-08-19T21:36:58.888Z,16.10
2017-08-19T21:39:27.379Z,16.05
2017-08-19T21:41:55.835Z,16.05
2017-08-19T21:44:24.326Z,16.04
2017-08-19T21:46:52.831Z,16.01
2017-08-19T21:49:21.313Z,15.95
2017-08-19T21:51:49.896Z,15.91
2017-08-19T21:54:18.368Z,15.93
2017-08-19T21:56:46.816Z,15.90
2017-08-19T21:59:16.131Z,15.90
2017-08-19T22:01:44.594Z,15.88
2017-08-19T22:04:13.792Z,15.85
2017-08-19T22:06:43.041Z,15.85
2017-08-19T22:09:12.243Z,15.83
2017-08-19T22:11:40.721Z,15.81
2017-08-19T22:14:09.164Z,15.83
2017-08-19T22:16:38.388Z,15.81
2017-08-19T22:19:06.872Z,15.80
2017-08-19T22:21:35.362Z,15.77
2017-08-19T22:24:03.819Z,15.79
2017-08-19T22:26:32.327Z,15.81
2017-08-19T22:29:00.784Z,15.82
2017-08-19T22:31:29.211Z,15.83
2017-08-19T22:33:57.760Z,15.83
2017-08-19T22:36:26.193Z,15.85
2017-08-19T22:38:54.724Z,15.83
2017-08-19T22:41:23.198Z,15.83
2017-08-19T22:43:51.692Z,15.84
2017-08-19T22:46:20.168Z,15.85
2017-08-19T22:48:48.656Z,15.87
2017-08-19T22:51:17.136Z,15.85
2017-08-19T22:53:45.616Z,15.91
2017-08-19T22:56:14.040Z,15.85
2017-08-19T22:58:42.499Z,15.83
2017-08-19T23:01:10.955Z,15.81
2017-08-19T23:03:39.404Z,15.73
2017-08-19T23:06:08.631Z,15.67
2017-08-19T23:08:37.120Z,15.58
2017-08-19T23:11:05.548Z,15.54
2017-08-19T23:13:34.084Z,15.49
2017-08-19T23:16:02.568Z,15.45
2017-08-19T23:18:31.042Z,15.45
2017-08-19T23:20:59.535Z,15.45
2017-08-19T23:23:28.016Z,15.45
2017-08-19T23:25:56.496Z,15.45
2017-08-19T23:28:24.975Z,15.48
2017-08-19T23:30:53.428Z,15.48
2017-08-19T23:33:22.655Z,15.49
2017-08-19T23:35:51.136Z,15.51
2017-08-19T23:38:19.563Z,15.53
2017-08-19T23:40:48.104Z,15.50
2017-08-19T23:43:16.584Z,15.51
2017-08-19T23:45:45.069Z,15.43
2017-08-19T23:48:13.552Z,15.34
2017-08-19T23:50:42.037Z,15.31
2017-08-19T23:53:10.507Z,15.26
2017-08-19T23:55:38.999Z,15.28
2017-08-19T23:58:07.429Z,15.16
